createdAt,value
2018-02-19T00:00:45.363Z,-2.50
2018-02-19T00:03:13.639Z,-2.50
2018-02-19T00:05:41.947Z,-2.50
2018-02-19T00:08:09.441Z,-2.50
2018-02-19T00:10:36.952Z,-2.50
2018-02-19T00:13:04.766Z,-2.60
2018-02-19T00:15:32.271Z,-2.50
2018-02-19T00:17:59.805Z,-2.50
2018-02-19T00:20:28.066Z,-2.60
2018-02-19T00:22:55.582Z,-2.60
2018-02-19T00:25:23.082Z,-2.50
2018-02-19T00:27:50.596Z,-2.50
2018-02-19T00:30:18.099Z,-2.50
2018-02-19T00:32:45.618Z,-2.50
2018-02-19T00:35:13.122Z,-2.60
2018-02-19T00:37:41.410Z,-2.90
2018-02-19T00:40:09.674Z,-2.90
2018-02-19T00:42:37.958Z,-2.90
2018-02-19T00:45:06.231Z,-2.90
2018-02-19T00:47:34.522Z,-3.00
2018-02-19T00:50:02.028Z,-3.00
2018-02-19T00:52:29.546Z,-3.00
2018-02-19T00:54:57.072Z,-3.00
2018-02-19T00:57:25.341Z,-2.80
2018-02-19T00:59:52.858Z,-2.90
2018-02-19T01:02:20.367Z,-2.80
2018-02-19T01:04:48.650Z,-2.80
2018-02-19T01:07:16.918Z,-2.80
2018-02-19T01:09:45.213Z,-2.80
2018-02-19T01:12:12.715Z,-2.80
2018-02-19T01:14:40.235Z,-2.80
2018-02-19T01:17:07.799Z,-2.80
2018-02-19T01:19:35.323Z,-2.90
2018-02-19T01:22:03.603Z,-3.10
2018-02-19T01:24:31.894Z,-3.00
2018-02-19T01:27:00.174Z,-3.00
2018-02-19T01:29:27.699Z,-3.00
2018-02-19T01:31:55.208Z,-3.00
2018-02-19T01:34:22.726Z,-3.00
2018-02-19T01:36:50.231Z,-3.00
2018-02-19T01:39:17.759Z,-3.10
2018-02-19T01:41:46.037Z,-3.10
2018-02-19T01:44:14.311Z,-3.00
2018-02-19T01:46:42.603Z,-3.10
2018-02-19T01:49:10.110Z,-3.10
2018-02-19T01:51:38.421Z,-3.00
2018-02-19T01:54:06.707Z,-2.90
2018-02-19T01:56:34.275Z,-2.90
2018-02-19T01:59:01.782Z,-2.90
2018-02-19T02:01:29.395Z,-2.80
2018-02-19T02:03:56.900Z,-2.90
2018-02-19T02:06:25.931Z,-2.90
2018-02-19T02:08:53.437Z,-2.90
2018-02-19T02:11:20.962Z,-2.80
2018-02-19T02:13:48.462Z,-2.80
2018-02-19T02:16:15.983Z,-2.80
2018-02-19T02:18:43.551Z,-2.90
2018-02-19T02:21:11.106Z,-2.80
2018-02-19T02:23:38.597Z,-2.80
2018-02-19T02:26:06.213Z,-2.80
2018-02-19T02:28:33.763Z,-2.80
2018-02-19T02:31:01.286Z,-2.70
2018-02-19T02:33:28.793Z,-2.70
2018-02-19T02:35:56.324Z,-2.70
2018-02-19T02:38:24.618Z,-2.90
2018-02-19T02:40:52.131Z,-2.90
2018-02-19T02:43:19.731Z,-3.00
2018-02-19T02:45:47.234Z,-3.00
2018-02-19T02:48:14.754Z,-3.00
2018-02-19T02:50:42.254Z,-3.00
2018-02-19T02:53:09.775Z,-3.00
2018-02-19T02:55:37.279Z,-3.10
2018-02-19T02:58:04.809Z,-3.00
2018-02-19T03:00:32.311Z,-3.00
2018-02-19T03:02:59.839Z,-3.10
2018-02-19T03:05:27.362Z,-3.10
2018-02-19T03:07:54.882Z,-3.10
2018-02-19T03:10:23.194Z,-3.10
2018-02-19T03:12:50.707Z,-3.10
2018-02-19T03:15:18.215Z,-3.10
2018-02-19T03:17:45.771Z,-3.10
2018-02-19T03:20:13.274Z,-3.10
2018-02-19T03:22:40.795Z,-3.20
2018-02-19T03:25:08.295Z,-3.20
2018-02-19T03:27:35.830Z,-3.10
2018-02-19T03:30:03.339Z,-3.10
2018-02-19T03:32:31.634Z,-3.20
2018-02-19T03:34:59.195Z,-3.20
2018-02-19T03:37:26.698Z,-3.20
2018-02-19T03:39:54.222Z,-3.20
2018-02-19T03:42:21.727Z,-3.30
2018-02-19T03:44:49.252Z,-3.30
2018-02-19T03:47:16.758Z,-3.20
2018-02-19T03:49:45.051Z,-3.20
2018-02-19T03:52:12.554Z,-3.30
2018-02-19T03:54:40.178Z,-3.20
2018-02-19T03:57:07.687Z,-3.20
2018-02-19T03:59:35.295Z,-3.20
2018-02-19T04:02:02.803Z,-3.10
2018-02-19T04:04:30.326Z,-3.10
2018-02-19T04:06:57.871Z,-3.10
2018-02-19T04:09:25.386Z,-3.10
2018-02-19T04:11:52.886Z,-3.10
2018-02-19T04:14:20.410Z,-3.10
2018-02-19T04:16:47.911Z,-3.20
2018-02-19T04:19:15.467Z,-3.20
2018-02-19T04:21:42.987Z,-3.20
2018-02-19T04:24:11.258Z,-3.10
2018-02-19T04:26:38.860Z,-3.10
2018-02-19T04:29:06.362Z,-3.10
2018-02-19T04:31:33.886Z,-3.10
2018-02-19T04:34:01.430Z,-3.10
2018-02-19T04:36:28.987Z,-3.10
2018-02-19T04:38:56.491Z,-3.10
2018-02-19T04:41:24.015Z,-3.10
2018-02-19T04:43:51.523Z,-3.00
2018-02-19T04:49:17.891Z,-3.00
2018-02-19T04:51:46.170Z,-3.10
2018-02-19T04:54:14.462Z,-3.00
2018-02-19T04:56:42.026Z,-3.00
2018-02-19T04:59:09.538Z,-3.00
2018-02-19T05:01:37.064Z,-3.10
2018-02-19T05:04:04.562Z,-3.10
2018-02-19T05:06:32.082Z,-3.10
2018-02-19T05:08:59.624Z,-3.20
2018-02-19T05:11:27.178Z,-3.20
2018-02-19T05:13:54.686Z,-3.20
2018-02-19T05:16:22.207Z,-3.30
2018-02-19T05:18:49.754Z,-3.40
2018-02-19T05:21:17.299Z,-3.50
2018-02-19T05:23:45.570Z,-3.30
2018-02-19T05:26:13.849Z,-3.20
2018-02-19T05:28:42.119Z,-3.30
2018-02-19T05:31:10.406Z,-3.20
2018-02-19T05:33:37.977Z,-3.20
2018-02-19T05:36:05.495Z,-3.20
2018-02-19T05:38:33.783Z,-3.10
2018-02-19T05:41:02.066Z,-3.10
2018-02-19T05:43:30.342Z,-3.10
2018-02-19T05:45:58.627Z,-3.00
2018-02-19T05:48:26.917Z,-3.00
2018-02-19T05:50:54.443Z,-3.10
2018-02-19T05:53:22.742Z,-3.00
2018-02-19T05:55:50.263Z,-3.10
2018-02-19T05:58:17.771Z,-3.00
2018-02-19T06:00:45.290Z,-3.00
2018-02-19T06:03:13.566Z,-3.00
2018-02-19T06:05:41.867Z,-3.00
2018-02-19T06:08:09.371Z,-3.10
2018-02-19T06:10:36.889Z,-3.10
2018-02-19T06:13:04.450Z,-3.10
2018-02-19T06:15:31.974Z,-3.00
2018-02-19T06:17:59.478Z,-3.10
2018-02-19T06:20:27.021Z,-3.10
2018-02-19T06:22:54.528Z,-3.10
2018-02-19T06:25:22.050Z,-3.00
2018-02-19T06:27:49.594Z,-3.00
2018-02-19T06:30:17.100Z,-2.70
2018-02-19T06:32:44.716Z,-2.50
2018-02-19T06:35:12.223Z,-2.70
2018-02-19T06:37:39.746Z,-2.80
2018-02-19T06:40:07.246Z,-2.90
2018-02-19T06:42:34.771Z,-2.90
2018-02-19T06:45:02.280Z,-2.80
2018-02-19T06:47:29.798Z,-2.90
2018-02-19T06:49:57.302Z,-2.90
2018-02-19T06:52:25.591Z,-2.60
2018-02-19T06:54:53.098Z,-2.60
2018-02-19T06:57:21.382Z,-2.30
2018-02-19T06:59:48.891Z,-2.30
2018-02-19T07:02:16.415Z,-2.30
2018-02-19T07:04:43.915Z,-2.20
2018-02-19T07:07:11.438Z,-2.30
2018-02-19T07:09:39.712Z,-2.50
2018-02-19T07:12:08.007Z,-2.30
2018-02-19T07:14:35.515Z,-2.30
2018-02-19T07:17:03.030Z,-2.40
2018-02-19T07:19:30.537Z,-2.50
2018-02-19T07:21:58.058Z,-2.50
2018-02-19T07:24:25.562Z,-2.60
2018-02-19T07:26:53.082Z,-2.50
2018-02-19T07:29:20.591Z,-2.50
2018-02-19T07:31:48.114Z,-2.50
2018-02-19T07:34:16.386Z,-2.40
2018-02-19T07:36:43.911Z,-2.50
2018-02-19T07:39:11.422Z,-2.50
2018-02-19T07:41:38.942Z,-2.50
2018-02-19T07:44:06.451Z,-2.40
2018-02-19T07:46:33.975Z,-2.40
2018-02-19T07:49:01.479Z,-2.40
2018-02-19T07:51:28.998Z,-2.40
2018-02-19T07:53:56.506Z,-2.20
2018-02-19T07:56:24.789Z,-2.00
2018-02-19T07:58:52.299Z,-2.00
2018-02-19T08:01:19.827Z,-1.80
2018-02-19T08:03:47.332Z,-1.70
2018-02-19T08:06:14.851Z,-1.70
2018-02-19T08:08:42.351Z,-1.90
2018-02-19T08:11:09.867Z,-1.90
2018-02-19T08:13:37.366Z,-2.00
2018-02-19T08:16:04.900Z,-2.00
2018-02-19T08:18:32.407Z,-2.00
2018-02-19T08:21:00.679Z,-2.10
2018-02-19T08:23:28.967Z,-2.10
2018-02-19T08:25:56.470Z,-2.10
2018-02-19T08:28:24.305Z,-2.10
2018-02-19T08:30:51.810Z,-2.30
2018-02-19T08:33:19.326Z,-2.20
2018-02-19T08:35:46.829Z,-2.20
2018-02-19T08:38:14.351Z,-2.20
2018-02-19T08:40:41.859Z,-2.20
2018-02-19T08:43:10.147Z,-2.20
2018-02-19T08:45:37.667Z,-2.20
2018-02-19T08:48:05.186Z,-2.20
2018-02-19T08:50:32.690Z,-2.10
2018-02-19T08:53:00.216Z,-2.10
2018-02-19T08:55:27.726Z,-2.10
2018-02-19T08:57:56.011Z,-2.20
2018-02-19T09:00:24.288Z,-2.10
2018-02-19T09:02:52.575Z,-1.90
2018-02-19T09:05:20.079Z,-2.00
2018-02-19T09:07:47.599Z,-1.80
2018-02-19T09:10:15.105Z,-1.70
2018-02-19T09:12:42.622Z,-1.80
2018-02-19T09:15:10.169Z,-1.90
2018-02-19T09:17:38.434Z,-1.90
2018-02-19T09:20:06.708Z,-1.90
2018-02-19T09:22:34.999Z,-2.00
2018-02-19T09:25:02.504Z,-2.00
2018-02-19T09:27:30.028Z,-1.80
2018-02-19T09:29:57.538Z,-1.90
2018-02-19T09:32:25.830Z,-2.00
2018-02-19T09:34:54.098Z,-1.90
2018-02-19T09:37:22.388Z,-1.50
2018-02-19T09:39:50.660Z,-1.30
2018-02-19T09:42:18.946Z,-1.30
2018-02-19T09:44:46.451Z,-1.30
2018-02-19T09:47:13.973Z,-1.40
2018-02-19T09:49:41.478Z,-1.20
2018-02-19T09:52:09.004Z,-1.60
2018-02-19T09:54:36.514Z,-1.50
2018-02-19T09:57:05.506Z,-1.60
2018-02-19T09:59:33.000Z,-1.60
2018-02-19T10:02:00.529Z,-1.50
2018-02-19T10:04:28.806Z,-1.20
2018-02-19T10:06:57.090Z,-1.10
2018-02-19T10:09:25.364Z,-1.20
2018-02-19T10:11:53.653Z,-1.20
2018-02-19T10:14:21.163Z,-1.20
2018-02-19T10:16:48.682Z,-1.10
2018-02-19T10:19:16.193Z,-1.00
2018-02-19T10:21:43.697Z,-1.00
2018-02-19T10:24:11.214Z,-0.70
2018-02-19T10:26:38.719Z,-0.90
2018-02-19T10:29:06.242Z,-0.90
2018-02-19T10:31:34.519Z,-0.90
2018-02-19T10:34:02.808Z,-0.90
2018-02-19T10:36:30.310Z,-0.90
2018-02-19T10:38:57.826Z,-0.60
2018-02-19T10:41:25.335Z,-0.80
2018-02-19T10:43:52.866Z,-0.70
2018-02-19T10:46:20.387Z,-0.70
2018-02-19T10:48:47.918Z,-0.70
2018-02-19T10:51:15.423Z,-0.60
2018-02-19T10:53:42.943Z,-0.70
2018-02-19T10:56:10.442Z,-0.70
2018-02-19T10:58:43.806Z,-0.60
2018-02-19T11:01:12.094Z,-0.60
2018-02-19T11:03:40.390Z,-0.70
2018-02-19T11:06:07.960Z,-0.70
2018-02-19T11:08:35.490Z,-0.90
2018-02-19T11:11:03.758Z,-0.80
2018-02-19T11:13:32.046Z,-1.10
2018-02-19T11:15:59.548Z,-1.10
2018-02-19T11:18:27.070Z,-0.90
2018-02-19T11:20:54.589Z,-0.50
2018-02-19T11:23:22.095Z,-0.30
2018-02-19T11:25:49.647Z,-0.20
2018-02-19T11:28:17.146Z,0.00
2018-02-19T11:30:44.667Z,0.10
2018-02-19T11:33:12.170Z,0.00
2018-02-19T11:35:39.775Z,0.00
2018-02-19T11:38:07.339Z,-0.40
2018-02-19T11:40:34.854Z,-0.10
2018-02-19T11:43:02.455Z,-0.20
2018-02-19T11:45:29.975Z,-0.20
2018-02-19T11:47:57.478Z,-0.40
2018-02-19T11:50:25.019Z,-0.50
2018-02-19T11:52:52.633Z,-0.20
2018-02-19T11:55:20.130Z,-0.70
2018-02-19T11:57:48.398Z,-0.60
2018-02-19T12:00:16.691Z,-0.50
2018-02-19T12:02:44.198Z,-0.50
2018-02-19T12:05:11.718Z,-0.50
2018-02-19T12:07:39.222Z,-0.40
2018-02-19T12:10:06.746Z,-0.10
2018-02-19T12:12:34.246Z,-0.30
2018-02-19T12:15:01.767Z,-0.20
2018-02-19T12:17:29.274Z,-0.40
2018-02-19T12:19:56.791Z,-0.50
2018-02-19T12:22:24.295Z,-0.50
2018-02-19T12:24:52.584Z,-0.40
2018-02-19T12:27:20.856Z,-0.50
2018-02-19T12:29:49.143Z,-0.60
2018-02-19T12:32:16.659Z,-0.60
2018-02-19T12:34:44.178Z,-0.70
2018-02-19T12:37:11.678Z,-0.70
2018-02-19T12:39:39.206Z,-0.80
2018-02-19T12:42:07.063Z,-0.80
2018-02-19T12:44:34.591Z,-0.50
2018-02-19T12:47:02.870Z,-0.40
2018-02-19T12:49:31.158Z,-0.50
2018-02-19T12:51:58.671Z,-0.50
2018-02-19T12:54:26.315Z,-0.60
2018-02-19T12:56:53.823Z,-0.80
2018-02-19T12:59:22.110Z,-0.70
2018-02-19T13:01:49.614Z,-0.70
2018-02-19T13:04:17.136Z,-0.80
2018-02-19T13:06:44.642Z,-0.80
2018-02-19T13:09:12.147Z,-0.50
2018-02-19T13:11:39.675Z,-0.40
2018-02-19T13:14:07.951Z,-0.40
2018-02-19T13:16:36.247Z,-0.40
2018-02-19T13:19:03.758Z,-0.40
2018-02-19T13:21:31.282Z,-0.30
2018-02-19T13:23:58.790Z,-0.50
2018-02-19T13:26:26.311Z,-0.60
2018-02-19T13:28:53.820Z,-0.60
2018-02-19T13:31:22.110Z,-0.60
2018-02-19T13:33:50.381Z,-0.60
2018-02-19T13:36:17.906Z,-0.60
2018-02-19T13:38:45.413Z,-0.60
2018-02-19T13:41:12.931Z,-0.60
2018-02-19T13:43:41.065Z,-0.60
2018-02-19T13:46:08.586Z,-0.60
2018-02-19T13:48:36.115Z,-0.70
2018-02-19T13:51:03.644Z,-0.80
2018-02-19T13:53:31.151Z,-0.90
2018-02-19T13:55:59.475Z,-0.70
2018-02-19T13:58:26.959Z,-0.70
2018-02-19T14:00:54.482Z,-0.70
2018-02-19T14:03:21.986Z,-0.60
2018-02-19T14:05:49.510Z,-0.60
2018-02-19T14:08:17.016Z,-0.60
2018-02-19T14:10:45.311Z,-0.50
2018-02-19T14:13:12.816Z,-0.50
2018-02-19T14:15:40.339Z,-0.70
2018-02-19T14:18:07.849Z,-0.70
2018-02-19T14:20:35.362Z,-0.80
2018-02-19T14:23:02.870Z,-0.70
2018-02-19T14:25:30.390Z,-0.90
2018-02-19T14:27:57.891Z,-0.80
2018-02-19T14:30:25.419Z,-0.80
2018-02-19T14:32:52.923Z,-0.90
2018-02-19T14:35:21.211Z,-1.00
2018-02-19T14:37:48.719Z,-1.10
2018-02-19T14:40:16.242Z,-1.10
2018-02-19T14:42:43.751Z,-0.80
2018-02-19T14:45:11.275Z,-0.70
2018-02-19T14:47:38.783Z,-0.90
2018-02-19T14:50:07.066Z,-1.00
2018-02-19T14:52:35.334Z,-0.90
2018-02-19T14:55:03.622Z,-0.80
2018-02-19T14:57:31.898Z,-0.90
2018-02-19T15:00:00.197Z,-0.70
2018-02-19T15:02:27.702Z,-0.70
2018-02-19T15:04:55.210Z,-1.00
2018-02-19T15:07:22.732Z,-1.00
2018-02-19T15:09:51.011Z,-1.20
2018-02-19T15:12:19.302Z,-1.10
2018-02-19T15:14:46.816Z,-1.10
2018-02-19T15:17:14.427Z,-1.30
2018-02-19T15:19:41.941Z,-1.10
2018-02-19T15:22:09.462Z,-1.00
2018-02-19T15:24:37.010Z,-1.30
2018-02-19T15:27:04.571Z,-1.40
2018-02-19T15:29:32.127Z,-1.40
2018-02-19T15:31:59.655Z,-1.50
2018-02-19T15:34:27.959Z,-1.60
2018-02-19T15:36:55.518Z,-1.70
2018-02-19T15:39:23.023Z,-1.70
2018-02-19T15:41:50.547Z,-1.70
2018-02-19T15:44:18.067Z,-1.70
2018-02-19T15:46:46.356Z,-1.80
2018-02-19T15:49:14.631Z,-1.80
2018-02-19T15:51:42.919Z,-1.90
2018-02-19T15:54:10.426Z,-1.90
2018-02-19T15:56:37.955Z,-1.90
2018-02-19T15:59:05.459Z,-1.70
2018-02-19T16:01:34.491Z,-2.00
2018-02-19T16:04:02.005Z,-2.00
2018-02-19T16:06:29.518Z,-2.00
2018-02-19T16:08:57.022Z,-2.00
2018-02-19T16:11:24.572Z,-2.00
2018-02-19T16:13:52.077Z,-1.90
2018-02-19T16:16:19.599Z,-1.90
2018-02-19T16:18:47.106Z,-1.90
2018-02-19T16:21:14.655Z,-1.80
2018-02-19T16:23:42.171Z,-1.90
2018-02-19T16:26:09.775Z,-1.90
2018-02-19T16:28:37.283Z,-2.00
2018-02-19T16:31:04.802Z,-1.90
2018-02-19T16:33:32.311Z,-2.10
2018-02-19T16:35:59.830Z,-2.10
2018-02-19T16:38:27.335Z,-2.10
2018-02-19T16:40:55.622Z,-1.90
2018-02-19T16:43:23.889Z,-2.10
2018-02-19T16:45:52.174Z,-2.10
2018-02-19T16:48:20.447Z,-2.10
2018-02-19T16:50:48.742Z,-1.90
2018-02-19T16:53:16.254Z,-1.80
2018-02-19T16:55:44.531Z,-2.10
2018-02-19T16:58:12.054Z,-2.10
2018-02-19T17:00:39.566Z,-2.20
2018-02-19T17:03:07.854Z,-2.00
2018-02-19T17:05:36.123Z,-2.10
2018-02-19T17:08:04.414Z,-2.10
2018-02-19T17:10:31.923Z,-2.10
2018-02-19T17:12:59.446Z,-2.20
2018-02-19T17:15:26.950Z,-2.30
2018-02-19T17:17:54.478Z,-2.30
2018-02-19T17:20:21.983Z,-2.40
2018-02-19T17:22:50.551Z,-2.40
2018-02-19T17:25:18.054Z,-2.40
2018-02-19T17:27:45.581Z,-2.50
2018-02-19T17:30:13.854Z,-2.60
2018-02-19T17:32:41.374Z,-2.60
2018-02-19T17:35:10.828Z,-2.60
2018-02-19T17:37:39.123Z,-2.60
2018-02-19T17:40:06.638Z,-2.60
2018-02-19T17:42:34.162Z,-2.50
2018-02-19T17:45:01.676Z,-2.60
2018-02-19T17:47:29.978Z,-2.50
2018-02-19T17:49:57.487Z,-2.50
2018-02-19T17:52:25.018Z,-2.50
2018-02-19T17:54:52.527Z,-2.60
2018-02-19T17:57:20.821Z,-2.50
2018-02-19T17:59:48.326Z,-2.50
2018-02-19T18:02:15.847Z,-2.50
2018-02-19T18:04:43.351Z,-2.50
2018-02-19T18:07:10.958Z,-2.60
2018-02-19T18:09:38.471Z,-2.50
2018-02-19T18:12:05.998Z,-2.60
2018-02-19T18:14:33.531Z,-2.60
2018-02-19T18:17:01.100Z,-2.50
2018-02-19T18:19:28.608Z,-2.50
2018-02-19T18:21:56.328Z,-2.70
2018-02-19T18:24:23.836Z,-2.80
2018-02-19T18:26:51.363Z,-2.70
2018-02-19T18:29:18.866Z,-2.70
2018-02-19T18:31:47.150Z,-2.70
2018-02-19T18:34:15.423Z,-2.60
2018-02-19T18:36:43.718Z,-2.70
2018-02-19T18:39:11.275Z,-2.70
2018-02-19T18:41:38.910Z,-2.70
2018-02-19T18:44:07.216Z,-2.60
2018-02-19T18:46:34.743Z,-2.60
2018-02-19T18:49:03.051Z,-2.80
2018-02-19T18:51:30.558Z,-2.80
2018-02-19T18:53:58.163Z,-2.80
2018-02-19T18:56:25.727Z,-2.80
2018-02-19T18:58:53.280Z,-2.80
2018-02-19T19:01:21.538Z,-2.70
2018-02-19T19:03:49.826Z,-2.70
2018-02-19T19:06:17.404Z,-2.70
2018-02-19T19:08:56.958Z,-2.60
2018-02-19T19:11:24.498Z,-2.70
2018-02-19T19:13:52.026Z,-2.70
2018-02-19T19:16:20.326Z,-2.80
2018-02-19T19:18:47.886Z,-2.80
2018-02-19T19:21:15.399Z,-2.70
2018-02-19T19:23:42.923Z,-2.70
2018-02-19T19:26:10.436Z,-2.70
2018-02-19T19:28:38.732Z,-2.80
2018-02-19T19:31:06.235Z,-2.80
2018-02-19T19:33:33.774Z,-2.80
2018-02-19T19:36:01.311Z,-2.80
2018-02-19T19:38:29.579Z,-2.70
2018-02-19T19:40:57.152Z,-2.80
2018-02-19T19:43:24.662Z,-2.70
2018-02-19T19:45:52.195Z,-2.70
2018-02-19T19:48:19.698Z,-2.70
2018-02-19T19:50:47.992Z,-2.80
2018-02-19T19:53:15.564Z,-2.90
2018-02-19T19:55:43.086Z,-2.90
2018-02-19T19:58:10.674Z,-2.80
2018-02-19T20:00:38.211Z,-2.70
2018-02-19T20:03:06.491Z,-2.70
2018-02-19T20:05:34.774Z,-2.70
2018-02-19T20:08:03.066Z,-2.70
2018-02-19T20:10:30.587Z,-2.70
2018-02-19T20:12:58.094Z,-2.70
2018-02-19T20:15:25.619Z,-2.50
2018-02-19T20:17:53.891Z,-2.40
2018-02-19T20:20:22.183Z,-2.60
2018-02-19T20:22:49.687Z,-2.70
2018-02-19T20:25:17.202Z,-2.70
2018-02-19T20:27:44.767Z,-2.80
2018-02-19T20:30:12.317Z,-2.70
2018-02-19T20:32:39.889Z,-2.80
2018-02-19T20:35:07.419Z,-2.90
2018-02-19T20:40:06.622Z,-2.90
2018-02-19T20:42:34.215Z,-2.80
2018-02-19T20:45:01.738Z,-2.80
2018-02-19T20:47:29.249Z,-2.70
2018-02-19T20:49:56.792Z,-2.60
2018-02-19T20:52:24.305Z,-2.60
2018-02-19T20:54:53.315Z,-2.70
2018-02-19T20:57:21.614Z,-2.70
2018-02-19T20:59:49.117Z,-2.70
2018-02-19T21:02:16.647Z,-2.70
2018-02-19T21:04:44.151Z,-2.70
2018-02-19T21:07:11.666Z,-2.70
2018-02-19T21:09:39.175Z,-2.70
2018-02-19T21:12:06.746Z,-2.80
2018-02-19T21:14:34.278Z,-2.80
2018-02-19T21:17:01.883Z,-2.70
2018-02-19T21:19:29.395Z,-2.70
2018-02-19T21:21:56.922Z,-2.70
2018-02-19T21:24:24.438Z,-2.70
2018-02-19T21:26:52.738Z,-2.80
2018-02-19T21:29:20.247Z,-2.80
2018-02-19T21:31:47.775Z,-2.70
2018-02-19T21:34:15.288Z,-2.70
2018-02-19T21:36:43.582Z,-2.60
2018-02-19T21:39:11.106Z,-2.60
2018-02-19T21:41:38.714Z,-2.60
2018-02-19T21:44:06.223Z,-2.60
2018-02-19T21:46:35.358Z,-2.80
2018-02-19T21:49:02.869Z,-2.80
2018-02-19T21:51:30.400Z,-2.70
2018-02-19T21:53:57.908Z,-2.80
2018-02-19T21:56:26.194Z,-2.70
2018-02-19T21:58:54.490Z,-2.70
2018-02-19T22:01:22.019Z,-2.70
2018-02-19T22:03:50.322Z,-2.60
2018-02-19T22:06:17.850Z,-2.60
2018-02-19T22:08:45.438Z,-2.60
2018-02-19T22:11:12.970Z,-2.60
2018-02-19T22:13:41.242Z,-2.60
2018-02-19T22:16:08.834Z,-2.60
2018-02-19T22:18:36.344Z,-2.60
2018-02-19T22:21:04.635Z,-2.70
2018-02-19T22:23:32.147Z,-2.70
2018-02-19T22:25:59.675Z,-2.60
2018-02-19T22:28:27.949Z,-2.40
2018-02-19T22:30:55.483Z,-2.40
2018-02-19T22:33:22.997Z,-2.50
2018-02-19T22:35:50.536Z,-2.50
2018-02-19T22:38:18.047Z,-2.60
2018-02-19T22:40:45.570Z,-2.50
2018-02-19T22:43:13.075Z,-2.60
2018-02-19T22:45:40.669Z,-2.70
2018-02-19T22:48:08.231Z,-2.60
2018-02-19T22:50:35.744Z,-2.60
2018-02-19T22:53:03.267Z,-2.60
2018-02-19T22:55:30.770Z,-2.70
2018-02-19T22:57:58.294Z,-2.60
2018-02-19T23:00:25.798Z,-2.60
2018-02-19T23:02:54.090Z,-2.60
2018-02-19T23:05:21.594Z,-2.60
2018-02-19T23:07:49.127Z,-2.50
2018-02-19T23:10:16.631Z,-2.60
2018-02-19T23:12:44.159Z,-2.60
2018-02-19T23:15:11.680Z,-2.60
2018-02-19T23:17:39.211Z,-2.60
2018-02-19T23:20:06.806Z,-2.70
2018-02-19T23:22:34.330Z,-2.60
2018-02-19T23:25:01.844Z,-2.60
2018-02-19T23:27:29.371Z,-2.50
2018-02-19T23:29:56.883Z,-2.50
2018-02-19T23:32:24.417Z,-2.60
2018-02-19T23:34:51.923Z,-2.60
2018-02-19T23:37:20.214Z,-2.60
2018-02-19T23:39:48.494Z,-2.40
2018-02-19T23:42:16.788Z,-2.40
2018-02-19T23:44:44.294Z,-2.40
2018-02-19T23:47:11.814Z,-2.40
2018-02-19T23:49:39.318Z,-2.40
2018-02-19T23:52:06.846Z,-2.40
2018-02-19T23:54:35.294Z,-2.50
2018-02-19T23:57:02.862Z,-2.60
2018-02-19T23:59:30.370Z,-2.50
